Ina Theresa — V7UJ2 — position and weather

sailwx.info

Track history (hours):
 
Tides and Currents Weather Stations Pressure Air Temp Water Temp Dewpoint Dewpoint Depression Visibility Wind Speed Wind Dir Waves Ship Positions

Ina Theresa

Last reported at 2015-Feb-18 04:14 UTC. Time now 2015-Feb-26 23:26 UTC.
Position N 29°55' W 089°57'.
Warning: this ship's position is 8 days out of date.

Length 122 m; draft 6.3 m.

Type: Tanker. MMSI: 538004548.

Date/timePositionNaut miles runAvg speedWind from/ knotsBaromVisibWave heightAir tempDewpointWater temp
2015-Feb-18 04:14N 29°55' W 089°57'6 8.2
2015-Feb-18 03:31N 29°56' W 090°03'8 8.0
2015-Feb-18 02:30N 29°55' W 090°13'  
2015-Feb-15 14:23N 29°57' W 090°18'0 0.0
2015-Feb-15 12:29N 29°57' W 090°18'0 0.0
2015-Feb-15 11:32N 29°57' W 090°18'0 0.0
2015-Feb-15 10:11N 29°57' W 090°18'0 0.0
2015-Feb-15 09:32N 29°57' W 090°18'0 0.0
2015-Feb-15 07:32N 29°57' W 090°18'0 0.0
2015-Feb-15 06:17N 29°57' W 090°18'0 0.0
2015-Feb-15 01:32N 29°57' W 090°18'0 0.0
2015-Feb-14 13:17N 29°57' W 090°18'0 0.0
2015-Feb-14 12:20N 29°57' W 090°18'0 0.0
2015-Feb-14 11:26N 29°57' W 090°18'0 0.0
2015-Feb-14 10:32N 29°57' W 090°18'0 0.0
2015-Feb-14 09:32N 29°57' W 090°18'0 0.0
2015-Feb-14 06:32N 29°57' W 090°18'0 0.0
2015-Feb-12 09:08N 29°57' W 090°18'0 0.0
2015-Feb-12 08:05N 29°57' W 090°18'0 0.0
2015-Feb-12 07:26N 29°57' W 090°18'0 0.0
2015-Feb-12 05:11N 29°57' W 090°18'0 0.0
2015-Feb-12 02:32N 29°57' W 090°18'6 0.5
2015-Feb-11 15:14N 29°56' W 090°12'5 6.6
2015-Feb-11 14:32N 29°55' W 090°06'8 7.8
2015-Feb-11 13:32N 29°55' W 089°57'  
Track history (hours):
 
Tides and Currents Weather Stations Pressure Air Temp Water Temp Dewpoint Dewpoint Depression Visibility Wind Speed Wind Dir Waves Ship Positions

Ina Theresa

Last reported at 2015-Feb-18 04:14 UTC. Time now 2015-Feb-26 23:26 UTC.
Position N 29°55' W 089°57'.
Warning: this ship's position is 8 days out of date.

Length 122 m; draft 6.3 m.

Type: Tanker. MMSI: 538004548.

Date/timePositionNaut miles runAvg speedWind from/ knotsBaromVisibWave heightAir tempDewpointWater temp
2015-Feb-18 04:14N 29°55' W 089°57'6 8.2
2015-Feb-18 03:31N 29°56' W 090°03'8 8.0
2015-Feb-18 02:30N 29°55' W 090°13'  
2015-Feb-15 14:23N 29°57' W 090°18'0 0.0
2015-Feb-15 12:29N 29°57' W 090°18'0 0.0
2015-Feb-15 11:32N 29°57' W 090°18'0 0.0
2015-Feb-15 10:11N 29°57' W 090°18'0 0.0
2015-Feb-15 09:32N 29°57' W 090°18'0 0.0
2015-Feb-15 07:32N 29°57' W 090°18'0 0.0
2015-Feb-15 06:17N 29°57' W 090°18'0 0.0
2015-Feb-15 01:32N 29°57' W 090°18'0 0.0
2015-Feb-14 13:17N 29°57' W 090°18'0 0.0
2015-Feb-14 12:20N 29°57' W 090°18'0 0.0
2015-Feb-14 11:26N 29°57' W 090°18'0 0.0
2015-Feb-14 10:32N 29°57' W 090°18'0 0.0
2015-Feb-14 09:32N 29°57' W 090°18'0 0.0
2015-Feb-14 06:32N 29°57' W 090°18'0 0.0
2015-Feb-12 09:08N 29°57' W 090°18'0 0.0
2015-Feb-12 08:05N 29°57' W 090°18'0 0.0
2015-Feb-12 07:26N 29°57' W 090°18'0 0.0
2015-Feb-12 05:11N 29°57' W 090°18'0 0.0
2015-Feb-12 02:32N 29°57' W 090°18'6 0.5
2015-Feb-11 15:14N 29°56' W 090°12'5 6.6
2015-Feb-11 14:32N 29°55' W 090°06'8 7.8
2015-Feb-11 13:32N 29°55' W 089°57'  

Dump ship's entire track history